createdAt,value
2019-01-18T00:01:49.005Z,-0.40
2019-01-18T00:04:17.468Z,-0.40
2019-01-18T00:06:45.877Z,-0.40
2019-01-18T00:09:14.396Z,-0.50
2019-01-18T00:11:42.878Z,-0.50
2019-01-18T00:14:11.322Z,-0.50
2019-01-18T00:16:39.811Z,-0.40
2019-01-18T00:19:08.213Z,-0.30
2019-01-18T00:21:36.734Z,-0.20
2019-01-18T00:24:05.204Z,-0.20
2019-01-18T00:26:33.708Z,-0.20
2019-01-18T00:29:02.243Z,-0.20
2019-01-18T00:31:30.743Z,-0.20
2019-01-18T00:33:59.265Z,-0.20
2019-01-18T00:36:27.692Z,-0.10
2019-01-18T00:38:56.153Z,-0.10
2019-01-18T00:41:24.608Z,-0.10
2019-01-18T00:43:53.046Z,-0.20
2019-01-18T00:46:21.480Z,-0.20
2019-01-18T00:48:49.929Z,-0.20
2019-01-18T00:51:18.366Z,-0.20
2019-01-18T00:53:46.903Z,-0.20
2019-01-18T00:56:15.384Z,-0.20
2019-01-18T00:58:43.827Z,-0.20
2019-01-18T01:01:12.302Z,-0.20
2019-01-18T01:03:40.762Z,-0.20
2019-01-18T01:06:09.185Z,-0.20
2019-01-18T01:08:38.305Z,-0.20
2019-01-18T01:11:06.821Z,-0.20
2019-01-18T01:13:35.302Z,-0.20
2019-01-18T01:16:03.739Z,-0.30
2019-01-18T01:18:32.172Z,-0.30
2019-01-18T01:21:02.336Z,-0.30
2019-01-18T01:23:30.808Z,-0.30
2019-01-18T01:25:59.259Z,-0.30
2019-01-18T01:28:27.696Z,-0.40
2019-01-18T01:30:56.125Z,-0.40
2019-01-18T01:33:24.559Z,-0.50
2019-01-18T01:35:52.969Z,-0.60
2019-01-18T01:38:21.438Z,-0.70
2019-01-18T01:40:49.956Z,-0.70
2019-01-18T01:43:18.539Z,-0.70
2019-01-18T01:45:47.027Z,-0.60
2019-01-18T01:48:15.537Z,-0.50
2019-01-18T01:50:43.957Z,-0.50
2019-01-18T01:53:12.418Z,-0.50
2019-01-18T01:55:40.848Z,-0.50
2019-01-18T01:58:09.368Z,-0.40
2019-01-18T02:00:38.070Z,-0.40
2019-01-18T02:03:06.461Z,-0.40
2019-01-18T02:05:34.896Z,-0.40
2019-01-18T02:08:03.324Z,-0.50
2019-01-18T02:10:31.793Z,-0.60
2019-01-18T02:13:00.284Z,-0.60
2019-01-18T02:15:28.723Z,-0.60
2019-01-18T02:17:57.208Z,-0.60
2019-01-18T02:20:25.686Z,-0.70
2019-01-18T02:22:54.271Z,-0.80
2019-01-18T02:25:22.742Z,-0.90
2019-01-18T02:27:51.261Z,-0.90
2019-01-18T02:30:24.986Z,-1.00
2019-01-18T02:32:53.531Z,-1.00
2019-01-18T02:35:22.121Z,-1.00
2019-01-18T02:37:50.560Z,-1.10
2019-01-18T02:40:19.014Z,-1.10
2019-01-18T02:42:47.499Z,-1.20
2019-01-18T02:45:21.455Z,-1.20
2019-01-18T02:47:50.883Z,-1.20
2019-01-18T02:50:19.451Z,-1.20
2019-01-18T02:52:47.890Z,-1.30
2019-01-18T02:55:16.455Z,-1.30
2019-01-18T02:57:44.972Z,-1.30
2019-01-18T03:00:23.943Z,-1.40
2019-01-18T03:02:52.818Z,-1.40
2019-01-18T03:05:24.095Z,-1.30
2019-01-18T03:07:52.941Z,-1.40
2019-01-18T03:10:24.506Z,-1.40
2019-01-18T03:12:52.955Z,-1.40
2019-01-18T03:15:21.463Z,-1.40
2019-01-18T03:17:49.941Z,-1.40
2019-01-18T03:20:19.572Z,-1.30
2019-01-18T03:22:47.969Z,-1.20
2019-01-18T03:25:21.435Z,-1.10
2019-01-18T03:27:49.855Z,-1.10
2019-01-18T03:30:20.619Z,-1.00
2019-01-18T03:32:49.111Z,-1.00
2019-01-18T03:35:19.580Z,-0.90
2019-01-18T03:37:48.025Z,-0.90
2019-01-18T03:40:18.311Z,-0.80
2019-01-18T03:42:47.667Z,-0.80
2019-01-18T03:45:17.772Z,-0.70
2019-01-18T03:47:46.403Z,-0.70
2019-01-18T03:50:19.564Z,-0.70
2019-01-18T03:52:48.080Z,-0.80
2019-01-18T03:55:16.674Z,-0.70
2019-01-18T03:57:45.273Z,-0.70
2019-01-18T04:00:25.983Z,-0.70
2019-01-18T04:02:49.367Z,-0.70
2019-01-18T04:05:17.978Z,-0.70
2019-01-18T04:07:46.388Z,-0.70
2019-01-18T04:10:17.872Z,-0.80
2019-01-18T04:12:46.292Z,-0.80
2019-01-18T04:15:17.232Z,-0.90
2019-01-18T04:17:45.887Z,-0.90
2019-01-18T04:20:19.200Z,-1.00
2019-01-18T04:22:47.697Z,-1.10
2019-01-18T04:25:23.869Z,-1.20
2019-01-18T04:27:52.296Z,-1.20
2019-01-18T04:30:22.900Z,-1.20
2019-01-18T04:32:51.588Z,-1.20
2019-01-18T04:35:20.278Z,-1.20
2019-01-18T04:37:48.983Z,-1.20
2019-01-18T04:40:22.221Z,-1.10
2019-01-18T04:42:50.935Z,-1.10
2019-01-18T04:45:19.510Z,-1.10
2019-01-18T04:47:48.003Z,-1.20
2019-01-18T04:50:18.905Z,-1.20
2019-01-18T04:52:47.409Z,-1.20
2019-01-18T04:55:16.000Z,-1.20
2019-01-18T04:57:44.458Z,-1.20
2019-01-18T05:00:21.198Z,-1.30
2019-01-18T05:02:49.639Z,-1.30
2019-01-18T05:05:18.348Z,-1.20
2019-01-18T05:07:46.827Z,-1.20
2019-01-18T05:10:26.351Z,-1.20
2019-01-18T05:12:54.910Z,-1.20
2019-01-18T05:15:31.559Z,-1.30
2019-01-18T05:17:59.991Z,-1.40
2019-01-18T05:20:28.584Z,-1.40
2019-01-18T05:22:57.068Z,-1.40
2019-01-18T05:25:25.554Z,-1.40
2019-01-18T05:27:53.973Z,-1.40
2019-01-18T05:30:27.406Z,-1.30
2019-01-18T05:32:55.855Z,-1.30
2019-01-18T05:35:24.399Z,-1.20
2019-01-18T05:37:52.945Z,-1.20
2019-01-18T05:40:22.730Z,-1.20
2019-01-18T05:42:51.412Z,-1.10
2019-01-18T05:45:23.593Z,-1.20
2019-01-18T05:47:52.455Z,-1.10
2019-01-18T05:50:26.238Z,-1.10
2019-01-18T05:52:54.708Z,-1.10
2019-01-18T05:55:23.195Z,-1.10
2019-01-18T05:57:51.799Z,-1.10
2019-01-18T06:00:26.738Z,-1.10
2019-01-18T06:02:55.224Z,-1.20
2019-01-18T06:05:24.006Z,-1.30
2019-01-18T06:07:53.512Z,-1.20
2019-01-18T06:10:21.901Z,-1.20
2019-01-18T06:12:50.348Z,-1.20
2019-01-18T06:15:18.884Z,-1.20
2019-01-18T06:17:47.620Z,-1.20
2019-01-18T06:20:17.141Z,-1.20
2019-01-18T06:22:45.699Z,-1.10
2019-01-18T06:25:14.188Z,-1.20
2019-01-18T06:27:42.654Z,-1.20
2019-01-18T06:30:17.203Z,-1.20
2019-01-18T06:32:45.667Z,-1.20
2019-01-18T06:35:14.754Z,-1.20
2019-01-18T06:37:43.165Z,-1.30
2019-01-18T06:40:16.909Z,-1.50
2019-01-18T06:42:45.348Z,-1.50
2019-01-18T06:45:16.369Z,-1.50
2019-01-18T06:47:45.111Z,-1.50
2019-01-18T06:50:16.231Z,-1.50
2019-01-18T06:52:44.783Z,-1.50
2019-01-18T06:55:13.390Z,-1.50
2019-01-18T06:57:42.013Z,-1.50
2019-01-18T07:00:16.414Z,-1.40
2019-01-18T07:02:44.920Z,-1.50
2019-01-18T07:05:13.627Z,-1.50
2019-01-18T07:07:42.152Z,-1.50
2019-01-18T07:10:20.486Z,-1.50
2019-01-18T07:12:43.910Z,-1.50
2019-01-18T07:15:13.039Z,-1.60
2019-01-18T07:17:41.588Z,-1.80
2019-01-18T07:20:12.314Z,-1.80
2019-01-18T07:22:40.905Z,-1.90
2019-01-18T07:25:17.793Z,-2.10
2019-01-18T07:27:46.323Z,-2.10
2019-01-18T07:30:18.020Z,-2.20
2019-01-18T07:32:46.585Z,-2.30
2019-01-18T07:35:15.120Z,-2.40
2019-01-18T07:37:43.571Z,-2.40
2019-01-18T07:40:12.336Z,-2.40
2019-01-18T07:42:40.829Z,-2.50
2019-01-18T07:45:15.490Z,-2.50
2019-01-18T07:47:43.883Z,-2.50
2019-01-18T07:50:19.759Z,-2.50
2019-01-18T07:52:43.678Z,-2.50
2019-01-18T07:55:12.475Z,-2.50
2019-01-18T07:57:41.017Z,-2.50
2019-01-18T08:00:15.443Z,-2.50
2019-01-18T08:02:43.941Z,-2.50
2019-01-18T08:05:12.514Z,-2.60
2019-01-18T08:07:41.083Z,-2.60
2019-01-18T08:10:12.695Z,-2.60
2019-01-18T08:12:41.355Z,-2.60
2019-01-18T08:15:17.973Z,-2.60
2019-01-18T08:17:46.706Z,-2.60
2019-01-18T08:20:20.169Z,-2.60
2019-01-18T08:22:48.727Z,-2.60
2019-01-18T08:25:17.221Z,-2.60
2019-01-18T08:27:45.692Z,-2.70
2019-01-18T08:30:19.340Z,-2.70
2019-01-18T08:32:48.395Z,-2.80
2019-01-18T08:35:18.585Z,-2.70
2019-01-18T08:37:47.373Z,-2.70
2019-01-18T08:40:21.300Z,-2.60
2019-01-18T08:42:49.976Z,-2.70
2019-01-18T08:45:26.864Z,-2.70
2019-01-18T08:47:55.289Z,-2.70
2019-01-18T08:50:23.933Z,-2.70
2019-01-18T08:52:52.347Z,-2.70
2019-01-18T08:55:20.778Z,-2.70
2019-01-18T08:57:49.311Z,-2.60
2019-01-18T09:00:29.529Z,-2.50
2019-01-18T09:02:58.017Z,-2.50
2019-01-18T09:05:27.440Z,-2.50
2019-01-18T09:07:55.948Z,-2.40
2019-01-18T09:10:35.338Z,-2.40
2019-01-18T09:13:03.845Z,-2.50
2019-01-18T09:15:32.368Z,-2.50
2019-01-18T09:18:00.890Z,-2.60
2019-01-18T09:20:30.798Z,-2.50
2019-01-18T09:22:59.310Z,-2.40
2019-01-18T09:25:27.846Z,-2.40
2019-01-18T09:27:56.408Z,-2.30
2019-01-18T09:30:31.798Z,-2.30
2019-01-18T09:33:00.710Z,-2.20
2019-01-18T09:35:29.398Z,-2.30
2019-01-18T09:37:59.654Z,-2.30
2019-01-18T09:40:30.182Z,-2.20
2019-01-18T09:42:58.697Z,-2.20
2019-01-18T09:45:27.238Z,-2.10
2019-01-18T09:47:55.816Z,-2.00
2019-01-18T09:50:29.190Z,-1.90
2019-01-18T09:52:58.184Z,-1.70
2019-01-18T09:55:26.702Z,-1.60
2019-01-18T09:57:55.245Z,-1.50
2019-01-18T10:00:29.005Z,-1.40
2019-01-18T10:02:57.826Z,-1.40
2019-01-18T10:05:26.467Z,-1.40
2019-01-18T10:07:54.973Z,-1.50
2019-01-18T10:10:23.653Z,-1.70
2019-01-18T10:12:52.233Z,-1.80
2019-01-18T10:15:31.774Z,-1.80
2019-01-18T10:18:01.918Z,-1.90
2019-01-18T10:20:30.366Z,-1.80
2019-01-18T10:22:59.017Z,-1.80
2019-01-18T10:25:27.505Z,-1.80
2019-01-18T10:27:55.910Z,-1.90
2019-01-18T10:30:28.415Z,-2.00
2019-01-18T10:32:57.694Z,-2.00
2019-01-18T10:35:27.233Z,-1.90
2019-01-18T10:37:55.675Z,-1.90
2019-01-18T10:40:24.216Z,-1.90
2019-01-18T10:42:52.728Z,-2.00
2019-01-18T10:45:21.291Z,-2.00
2019-01-18T10:47:50.427Z,-2.10
2019-01-18T10:50:21.454Z,-2.20
2019-01-18T10:52:50.043Z,-2.20
2019-01-18T10:55:18.628Z,-2.20
2019-01-18T10:57:47.230Z,-2.20
2019-01-18T11:00:21.866Z,-2.20
2019-01-18T11:02:51.320Z,-2.30
2019-01-18T11:05:20.154Z,-2.30
2019-01-18T11:07:48.717Z,-2.10
2019-01-18T11:10:17.439Z,-1.90
2019-01-18T11:12:45.839Z,-1.90
2019-01-18T11:15:22.368Z,-1.80
2019-01-18T11:17:50.806Z,-1.90
2019-01-18T11:20:21.965Z,-1.90
2019-01-18T11:22:51.154Z,-1.90
2019-01-18T11:25:19.578Z,-1.90
2019-01-18T11:27:47.985Z,-1.90
2019-01-18T11:30:16.906Z,-1.90
2019-01-18T11:32:45.346Z,-2.00
2019-01-18T11:35:14.108Z,-2.00
2019-01-18T11:37:42.630Z,-2.00
2019-01-18T11:40:14.418Z,-2.00
2019-01-18T11:42:42.897Z,-2.00
2019-01-18T11:45:12.637Z,-1.90
2019-01-18T11:47:41.163Z,-1.90
2019-01-18T11:50:19.612Z,-1.80
2019-01-18T11:52:48.139Z,-1.80
2019-01-18T11:55:16.605Z,-1.80
2019-01-18T11:57:45.057Z,-1.90
2019-01-18T12:00:16.706Z,-1.90
2019-01-18T12:02:45.267Z,-1.90
2019-01-18T12:05:13.815Z,-1.90
2019-01-18T12:07:42.524Z,-2.00
2019-01-18T12:10:13.956Z,-2.00
2019-01-18T12:12:42.437Z,-2.00
2019-01-18T12:15:12.192Z,-2.00
2019-01-18T12:17:40.769Z,-1.90
2019-01-18T12:20:15.251Z,-1.90
2019-01-18T12:22:43.960Z,-1.90
2019-01-18T12:25:12.528Z,-2.00
2019-01-18T12:27:40.982Z,-2.00
2019-01-18T12:30:15.616Z,-1.90
2019-01-18T12:32:44.086Z,-1.90
2019-01-18T12:35:12.580Z,-1.80
2019-01-18T12:37:41.020Z,-1.60
2019-01-18T12:40:09.503Z,-1.60
2019-01-18T12:42:37.988Z,-1.60
2019-01-18T12:45:12.086Z,-1.50
2019-01-18T12:47:40.551Z,-1.50
2019-01-18T12:50:12.102Z,-1.40
2019-01-18T12:52:40.588Z,-1.40
2019-01-18T12:55:09.244Z,-1.40
2019-01-18T12:57:37.685Z,-1.40
2019-01-18T13:00:12.197Z,-1.50
2019-01-18T13:02:40.604Z,-1.50
2019-01-18T13:05:12.250Z,-1.60
2019-01-18T13:07:40.743Z,-1.60
2019-01-18T13:10:12.194Z,-1.60
2019-01-18T13:12:40.148Z,-1.70
2019-01-18T13:15:14.767Z,-1.70
2019-01-18T13:17:43.210Z,-1.80
2019-01-18T13:20:13.172Z,-1.80
2019-01-18T13:22:41.652Z,-1.70
2019-01-18T13:25:12.802Z,-1.70
2019-01-18T13:27:41.374Z,-1.70
2019-01-18T13:30:15.294Z,-1.80
2019-01-18T13:32:44.010Z,-1.80
2019-01-18T13:35:12.637Z,-1.70
2019-01-18T13:37:41.142Z,-1.70
2019-01-18T13:40:14.746Z,-1.70
2019-01-18T13:42:43.290Z,-1.70
2019-01-18T13:45:13.116Z,-1.70
2019-01-18T13:47:42.478Z,-1.70
2019-01-18T13:50:16.078Z,-1.70
2019-01-18T13:52:44.655Z,-1.80
2019-01-18T13:55:21.868Z,-1.80
2019-01-18T13:57:50.353Z,-1.80
2019-01-18T14:00:19.007Z,-1.70
2019-01-18T14:02:48.509Z,-1.70
2019-01-18T14:05:17.274Z,-1.70
2019-01-18T14:07:45.796Z,-1.70
2019-01-18T14:10:25.126Z,-1.70
2019-01-18T14:12:53.541Z,-1.70
2019-01-18T14:15:23.930Z,-1.80
2019-01-18T14:17:52.373Z,-1.80
2019-01-18T14:20:23.416Z,-1.90
2019-01-18T14:22:52.428Z,-1.90
2019-01-18T14:25:21.025Z,-1.90
2019-01-18T14:27:50.262Z,-2.00
2019-01-18T14:30:26.190Z,-1.90
2019-01-18T14:32:55.733Z,-1.90
2019-01-18T14:35:24.877Z,-2.00
2019-01-18T14:37:53.382Z,-2.00
2019-01-18T14:40:21.943Z,-2.00
2019-01-18T14:42:52.154Z,-2.10
2019-01-18T14:45:23.699Z,-2.10
2019-01-18T14:47:52.214Z,-2.10
2019-01-18T14:50:21.208Z,-2.10
2019-01-18T14:52:49.686Z,-2.20
2019-01-18T14:55:18.202Z,-2.30
2019-01-18T14:57:46.742Z,-2.40
2019-01-18T15:00:20.862Z,-2.50
2019-01-18T15:02:49.370Z,-2.60
2019-01-18T15:05:17.894Z,-2.70
2019-01-18T15:07:46.378Z,-2.80
2019-01-18T15:10:20.302Z,-2.90
2019-01-18T15:12:50.852Z,-3.00
2019-01-18T15:15:19.471Z,-3.00
2019-01-18T15:17:49.392Z,-3.10
2019-01-18T15:20:20.313Z,-3.10
2019-01-18T15:22:48.771Z,-3.20
2019-01-18T15:25:17.312Z,-3.20
2019-01-18T15:27:45.840Z,-3.30
2019-01-18T15:30:19.641Z,-3.40
2019-01-18T15:32:48.298Z,-3.50
2019-01-18T15:35:20.694Z,-3.50
2019-01-18T15:37:49.225Z,-3.60
2019-01-18T15:40:22.784Z,-3.60
2019-01-18T15:42:51.261Z,-3.60
2019-01-18T15:45:19.813Z,-3.70
2019-01-18T15:47:48.316Z,-3.80
2019-01-18T15:50:19.758Z,-4.10
2019-01-18T15:52:48.284Z,-4.20
2019-01-18T15:55:16.865Z,-4.40
2019-01-18T15:57:45.464Z,-4.70
2019-01-18T16:00:25.479Z,-4.90
2019-01-18T16:02:54.201Z,-5.00
2019-01-18T16:05:22.636Z,-5.00
2019-01-18T16:07:51.033Z,-5.00
2019-01-18T16:10:19.905Z,-5.00
2019-01-18T16:12:48.309Z,-5.10
2019-01-18T16:15:25.773Z,-5.20
2019-01-18T16:17:54.206Z,-5.50
2019-01-18T16:20:24.562Z,-5.80
2019-01-18T16:22:53.170Z,-5.90
2019-01-18T16:25:27.239Z,-5.90
2019-01-18T16:27:55.912Z,-5.70
2019-01-18T16:30:25.805Z,-5.90
2019-01-18T16:32:56.537Z,-5.90
2019-01-18T16:35:26.124Z,-5.80
2019-01-18T16:37:55.162Z,-6.00
2019-01-18T16:40:26.478Z,-6.20
2019-01-18T16:42:58.338Z,-6.40
2019-01-18T16:45:26.856Z,-6.50
2019-01-18T16:47:55.280Z,-6.60
2019-01-18T16:50:23.730Z,-6.70
2019-01-18T16:52:52.209Z,-6.80
2019-01-18T16:55:20.698Z,-6.90
2019-01-18T16:57:49.114Z,-6.90
2019-01-18T17:00:20.675Z,-6.90
2019-01-18T17:02:49.262Z,-6.90
2019-01-18T17:05:17.854Z,-6.90
2019-01-18T17:07:46.430Z,-6.90
2019-01-18T17:10:17.971Z,-6.90
2019-01-18T17:12:46.765Z,-6.80
2019-01-18T17:15:15.993Z,-6.60
2019-01-18T17:17:44.533Z,-6.70
2019-01-18T17:20:21.954Z,-7.10
2019-01-18T17:22:50.351Z,-7.20
2019-01-18T17:25:18.776Z,-7.50
2019-01-18T17:27:47.405Z,-7.60
2019-01-18T17:30:20.642Z,-7.70
2019-01-18T17:32:49.276Z,-7.80
2019-01-18T17:35:22.178Z,-7.80
2019-01-18T17:38:18.050Z,-7.70
2019-01-18T17:40:49.517Z,-7.80
2019-01-18T17:43:21.008Z,-7.70
2019-01-18T17:45:52.526Z,-7.70
2019-01-18T17:48:46.219Z,-7.80
2019-01-18T17:51:20.389Z,-7.80
2019-01-18T17:54:06.621Z,-7.70
2019-01-18T17:56:58.122Z,-7.50
2019-01-18T17:59:47.584Z,-7.50
2019-01-18T18:02:43.022Z,-7.40
2019-01-18T18:05:37.118Z,-7.40
2019-01-18T18:08:34.264Z,-7.50
2019-01-18T18:11:20.492Z,-7.60
2019-01-18T18:13:57.949Z,-7.70
2019-01-18T18:16:41.509Z,-7.70
2019-01-18T18:19:35.639Z,-7.70
2019-01-18T18:22:24.876Z,-7.90
2019-01-18T18:25:08.065Z,-8.00
2019-01-18T18:27:51.332Z,-8.10
2019-01-18T18:30:25.787Z,-8.20
2019-01-18T18:33:11.412Z,-8.10
2019-01-18T18:35:45.673Z,-8.00
2019-01-18T18:38:38.018Z,-8.20
2019-01-18T18:41:31.970Z,-8.40
2019-01-18T18:44:09.545Z,-8.50
2019-01-18T18:46:53.021Z,-8.50
2019-01-18T18:49:43.613Z,-8.50
2019-01-18T18:52:43.338Z,-8.50
2019-01-18T18:55:32.637Z,-8.60
2019-01-18T18:58:30.972Z,-8.80
2019-01-18T19:01:14.364Z,-8.80
2019-01-18T19:04:12.767Z,-8.90
2019-01-18T19:07:08.560Z,-8.90
2019-01-18T19:09:56.242Z,-8.90
2019-01-18T19:12:57.608Z,-9.10
2019-01-18T19:15:38.000Z,-9.30
2019-01-18T19:18:15.211Z,-9.40
2019-01-18T19:21:01.608Z,-9.50
2019-01-18T19:23:44.249Z,-9.60
2019-01-18T19:26:32.137Z,-9.60
2019-01-18T19:29:09.366Z,-9.50
2019-01-18T19:31:49.881Z,-9.40
2019-01-18T19:34:32.905Z,-9.40
2019-01-18T19:37:28.290Z,-9.40
2019-01-18T19:40:16.225Z,-9.40
2019-01-18T19:43:08.363Z,-9.40
2019-01-18T19:46:05.089Z,-9.40
2019-01-18T19:48:45.014Z,-9.50
2019-01-18T19:51:28.074Z,-9.60
2019-01-18T19:54:11.242Z,-9.50
2019-01-18T19:56:59.141Z,-9.50
2019-01-18T19:59:57.063Z,-9.50
2019-01-18T20:02:28.642Z,-9.50
2019-01-18T20:05:16.382Z,-9.50
2019-01-18T20:08:13.160Z,-9.70
2019-01-18T20:11:03.675Z,-9.80
2019-01-18T20:13:40.893Z,-9.70
2019-01-18T20:16:21.340Z,-9.70
2019-01-18T20:19:04.957Z,-9.70
2019-01-18T20:21:51.165Z,-9.70
2019-01-18T20:24:31.420Z,-9.90
2019-01-18T20:27:08.775Z,-9.70
2019-01-18T20:29:58.179Z,-9.40
2019-01-18T20:32:32.432Z,-9.40
2019-01-18T20:35:17.745Z,-9.50
2019-01-18T20:38:03.159Z,-9.60
2019-01-18T20:40:46.550Z,-9.70
2019-01-18T20:43:26.826Z,-9.80
2019-01-18T20:46:06.874Z,-10.00
2019-01-18T20:48:56.250Z,-10.00
2019-01-18T20:51:33.842Z,-10.10
2019-01-18T20:54:21.457Z,-10.20
2019-01-18T20:57:02.170Z,-10.30
2019-01-18T20:59:36.234Z,-10.40
2019-01-18T21:02:07.771Z,-10.20
2019-01-18T21:05:04.906Z,-10.30
2019-01-18T21:07:57.437Z,-10.30
2019-01-18T21:10:34.840Z,-10.20
2019-01-18T21:13:21.031Z,-10.10
2019-01-18T21:16:07.144Z,-10.00
2019-01-18T21:18:53.356Z,-9.80
2019-01-18T21:21:51.546Z,-9.90
2019-01-18T21:24:45.269Z,-9.90
2019-01-18T21:27:33.092Z,-9.80
2019-01-18T21:30:13.302Z,-9.80
2019-01-18T21:32:45.026Z,-9.80
2019-01-18T21:35:19.225Z,-9.70
2019-01-18T21:38:11.366Z,-9.70
2019-01-18T21:40:42.900Z,-9.70
2019-01-18T21:43:47.666Z,-9.70
2019-01-18T21:46:24.126Z,-9.80
2019-01-18T21:49:14.357Z,-9.90
2019-01-18T21:51:57.217Z,-10.20
2019-01-18T21:54:34.695Z,-10.40
2019-01-18T21:57:16.608Z,-10.60
2019-01-18T21:59:59.805Z,-10.50
2019-01-18T22:02:43.350Z,-10.40
2019-01-18T22:05:26.445Z,-10.40
2019-01-18T22:08:06.796Z,-10.50
2019-01-18T22:10:46.815Z,-10.60
2019-01-18T22:13:39.082Z,-10.70
2019-01-18T22:16:14.368Z,-10.90
2019-01-18T22:18:54.835Z,-10.60
2019-01-18T22:21:41.235Z,-10.40
2019-01-18T22:24:15.680Z,-10.30
2019-01-18T22:26:54.928Z,-10.20
2019-01-18T22:29:38.354Z,-10.00
2019-01-18T22:32:18.581Z,-10.00
2019-01-18T22:35:05.009Z,-10.40
2019-01-18T22:37:39.152Z,-10.60
2019-01-18T22:40:26.291Z,-10.60
2019-01-18T22:43:03.663Z,-10.70
2019-01-18T22:45:53.154Z,-10.80
2019-01-18T22:48:36.645Z,-11.00
2019-01-18T22:51:38.506Z,-11.10
2019-01-18T22:54:30.720Z,-11.20
2019-01-18T22:57:08.144Z,-11.30
2019-01-18T22:59:42.663Z,-11.30
2019-01-18T23:02:22.897Z,-11.30
2019-01-18T23:05:04.517Z,-11.20
2019-01-18T23:07:44.929Z,-11.00
2019-01-18T23:10:31.386Z,-11.10
2019-01-18T23:13:02.914Z,-11.20
2019-01-18T23:15:52.056Z,-11.30
2019-01-18T23:18:35.364Z,-11.40
2019-01-18T23:21:06.895Z,-11.50
2019-01-18T23:23:44.066Z,-11.60
2019-01-18T23:26:38.225Z,-11.60
2019-01-18T23:29:24.750Z,-11.70
2019-01-18T23:32:15.290Z,-11.70
2019-01-18T23:34:52.530Z,-11.80
2019-01-18T23:37:26.772Z,-11.70
2019-01-18T23:40:30.928Z,-11.80
2019-01-18T23:43:21.899Z,-11.80
2019-01-18T23:46:02.460Z,-11.90
2019-01-18T23:48:45.952Z,-11.80
2019-01-18T23:51:38.221Z,-11.70
2019-01-18T23:54:12.672Z,-11.70
2019-01-18T23:56:46.833Z,-11.60
2019-01-18T23:59:21.277Z,-11.70
